Terminal Aerodrome Forecast
Issued by NWS Cleveland, OH

Home | Current Version | Previous Version | Text Only | Print | Product List | Glossary On
Versions: 1 2 3 4 5 6 7 8 9 10 11 12 13
000
FTUS41 KCLE 201100 RRA
TAFTOL
TAF
KTOL 201141Z 2012/2112 19008KT P6SM BKN250
     FM201400 21012G22KT P6SM BKN250
     FM202000 21012G22KT P6SM SCT045 BKN120
     FM202300 23010KT P6SM VCTS BKN045CB
      TEMPO 2100/2103 3SM TSRA OVC035CB
     FM210800 23008KT P6SM OVC030=

USA.gov is the U.S. government's official web portal to all federal, state and local government web resources and services.